createdAt,value
2023-05-05T00:01:55.560Z,12.59
2023-05-05T00:04:24.347Z,12.57
2023-05-05T00:06:51.393Z,12.59
2023-05-05T00:09:18.473Z,12.57
2023-05-05T00:11:46.169Z,12.62
2023-05-05T00:14:13.364Z,12.61
2023-05-05T00:16:40.642Z,12.58
2023-05-05T00:19:07.583Z,12.58
2023-05-05T00:21:36.240Z,12.39
2023-05-05T00:24:03.579Z,12.46
2023-05-05T00:26:31.043Z,12.47
2023-05-05T00:28:58.046Z,12.47
2023-05-05T00:31:25.386Z,12.48
2023-05-05T00:33:52.601Z,12.22
2023-05-05T00:36:19.788Z,12.39
2023-05-05T00:38:48.089Z,12.46
2023-05-05T00:41:15.412Z,12.45
2023-05-05T00:43:42.442Z,12.38
2023-05-05T00:46:27.912Z,12.25
2023-05-05T00:48:55.274Z,12.25
2023-05-05T00:51:22.973Z,12.25
2023-05-05T00:53:51.533Z,12.22
2023-05-05T00:56:20.935Z,12.18
2023-05-05T00:58:49.026Z,12.03
2023-05-05T01:01:17.477Z,12.16
2023-05-05T01:03:44.937Z,12.18
2023-05-05T01:06:28.070Z,12.16
2023-05-05T01:09:05.169Z,12.13
2023-05-05T01:11:42.199Z,12.10
2023-05-05T01:14:14.310Z,12.03
2023-05-05T01:16:53.540Z,11.93
2023-05-05T01:19:43.371Z,11.88
2023-05-05T01:22:15.050Z,11.87
2023-05-05T01:24:59.780Z,11.81
2023-05-05T01:27:49.988Z,12.00
2023-05-05T01:30:41.698Z,12.05
2023-05-05T01:33:14.453Z,12.04
2023-05-05T01:35:45.966Z,11.88
2023-05-05T01:38:17.108Z,12.00
2023-05-05T01:40:48.256Z,11.90
2023-05-05T01:43:19.559Z,11.97
2023-05-05T01:45:48.094Z,12.01
2023-05-05T01:48:19.665Z,11.83
2023-05-05T01:50:48.359Z,11.89
2023-05-05T01:53:17.602Z,12.00
2023-05-05T01:55:46.048Z,11.99
2023-05-05T01:58:14.959Z,11.97
2023-05-05T02:00:42.878Z,11.89
2023-05-05T02:03:13.509Z,11.78
2023-05-05T02:05:43.642Z,11.52
2023-05-05T02:08:12.687Z,11.59
2023-05-05T02:10:43.493Z,11.68
2023-05-05T02:13:13.000Z,11.63
2023-05-05T02:15:42.402Z,11.61
2023-05-05T02:18:10.054Z,11.58
2023-05-05T02:20:38.491Z,11.64
2023-05-05T02:23:08.506Z,11.65
2023-05-05T02:25:40.106Z,11.65
2023-05-05T02:28:13.230Z,11.63
2023-05-05T02:30:41.759Z,11.68
2023-05-05T02:33:11.787Z,11.71
2023-05-05T02:35:40.944Z,11.57
2023-05-05T02:38:13.322Z,11.71
2023-05-05T02:40:44.331Z,11.70
2023-05-05T02:43:15.906Z,11.65
2023-05-05T02:45:43.023Z,11.77
2023-05-05T02:48:13.056Z,11.75
2023-05-05T02:50:40.298Z,11.73
2023-05-05T02:53:09.497Z,11.64
2023-05-05T02:55:42.996Z,11.64
2023-05-05T02:58:20.784Z,11.68
2023-05-05T03:00:55.708Z,11.68
2023-05-05T03:03:29.588Z,11.68
2023-05-05T03:06:03.983Z,11.69
2023-05-05T03:08:37.119Z,11.65
2023-05-05T03:11:06.525Z,11.52
2023-05-05T03:13:36.721Z,11.63
2023-05-05T03:16:07.682Z,11.61
2023-05-05T03:18:37.795Z,11.52
2023-05-05T03:21:08.666Z,11.44
2023-05-05T03:23:37.898Z,11.31
2023-05-05T03:26:04.730Z,11.42
2023-05-05T03:28:32.175Z,11.18
2023-05-05T03:30:59.155Z,11.35
2023-05-05T03:33:26.610Z,11.26
2023-05-05T03:35:53.548Z,11.17
2023-05-05T03:38:21.000Z,11.25
2023-05-05T03:40:49.412Z,11.23
2023-05-05T03:43:16.958Z,11.23
2023-05-05T03:45:43.850Z,11.30
2023-05-05T03:48:13.802Z,10.65
2023-05-05T03:50:40.654Z,11.38
2023-05-05T03:53:07.815Z,11.26
2023-05-05T03:55:35.247Z,11.46
2023-05-05T03:58:04.004Z,11.65
2023-05-05T04:00:30.974Z,11.68
2023-05-05T04:02:58.279Z,11.52
2023-05-05T04:05:26.293Z,11.65
2023-05-05T04:07:53.558Z,11.58
2023-05-05T04:10:21.459Z,11.11
2023-05-05T04:12:48.937Z,11.18
2023-05-05T04:15:17.343Z,11.40
2023-05-05T04:17:44.685Z,11.43
2023-05-05T04:20:12.190Z,11.47
2023-05-05T04:22:39.636Z,11.54
2023-05-05T04:25:07.367Z,11.70
2023-05-05T04:27:34.806Z,11.61
2023-05-05T04:30:01.875Z,11.76
2023-05-05T04:32:30.528Z,11.96
2023-05-05T04:34:57.509Z,12.24
2023-05-05T04:37:28.445Z,12.53
2023-05-05T04:39:55.473Z,12.85
2023-05-05T04:42:22.961Z,12.91
2023-05-05T04:44:49.880Z,13.26
2023-05-05T04:47:17.119Z,14.24
2023-05-05T04:49:45.548Z,15.04
2023-05-05T04:52:13.885Z,16.06
2023-05-05T04:54:40.966Z,16.99
2023-05-05T04:57:08.156Z,17.78
2023-05-05T04:59:35.298Z,18.60
2023-05-05T05:02:02.999Z,19.66
2023-05-05T05:04:30.130Z,20.67
2023-05-05T05:06:59.368Z,20.90
2023-05-05T05:09:26.428Z,21.40
2023-05-05T05:11:53.619Z,21.97
2023-05-05T05:14:20.723Z,22.31
2023-05-05T05:16:52.155Z,22.36
2023-05-05T05:19:20.134Z,22.46
2023-05-05T05:21:47.512Z,22.50
2023-05-05T05:24:16.342Z,22.39
2023-05-05T05:26:43.547Z,22.34
2023-05-05T05:29:10.564Z,21.68
2023-05-05T05:31:37.850Z,21.07
2023-05-05T05:34:04.839Z,20.96
2023-05-05T05:36:32.134Z,20.87
2023-05-05T05:38:59.128Z,20.44
2023-05-05T05:41:27.884Z,20.12
2023-05-05T05:43:54.984Z,19.91
2023-05-05T05:46:22.284Z,19.63
2023-05-05T05:48:49.318Z,19.63
2023-05-05T05:51:16.554Z,19.71
2023-05-05T05:53:43.501Z,19.49
2023-05-05T05:56:11.407Z,19.38
2023-05-05T05:58:40.615Z,19.10
2023-05-05T06:01:07.853Z,19.06
2023-05-05T06:03:36.188Z,19.16
2023-05-05T06:06:03.770Z,19.15
2023-05-05T06:08:30.980Z,19.11
2023-05-05T06:10:59.206Z,19.32
2023-05-05T06:13:26.448Z,19.16
2023-05-05T06:15:55.251Z,19.03
2023-05-05T06:18:22.324Z,19.08
2023-05-05T06:20:51.005Z,19.19
2023-05-05T06:23:18.341Z,19.72
2023-05-05T06:25:46.909Z,19.73
2023-05-05T06:28:14.096Z,19.70
2023-05-05T06:30:41.593Z,19.20
2023-05-05T06:33:10.107Z,20.00
2023-05-05T06:35:37.406Z,20.01
2023-05-05T06:38:04.536Z,19.95
2023-05-05T06:40:31.925Z,20.11
2023-05-05T06:42:59.283Z,20.02
2023-05-05T06:45:26.894Z,19.89
2023-05-05T06:47:53.882Z,19.99
2023-05-05T06:50:22.516Z,20.14
2023-05-05T06:52:49.711Z,20.58
2023-05-05T06:55:17.038Z,20.54
2023-05-05T06:57:43.997Z,20.73
2023-05-05T07:00:13.927Z,20.61
2023-05-05T07:02:41.724Z,20.41
2023-05-05T07:05:09.514Z,20.13
2023-05-05T07:07:38.861Z,20.10
2023-05-05T07:10:07.689Z,20.18
2023-05-05T07:12:34.630Z,20.56
2023-05-05T07:15:12.195Z,20.88
2023-05-05T07:17:46.437Z,20.91
2023-05-05T07:20:13.929Z,21.03
2023-05-05T07:22:42.397Z,20.98
2023-05-05T07:25:09.596Z,20.90
2023-05-05T07:27:37.427Z,21.05
2023-05-05T07:30:10.166Z,21.27
2023-05-05T07:32:40.027Z,21.31
2023-05-05T07:35:07.896Z,21.38
2023-05-05T07:37:34.820Z,21.27
2023-05-05T07:40:04.252Z,21.18
2023-05-05T07:42:31.252Z,21.42
2023-05-05T07:44:58.539Z,21.57
2023-05-05T07:47:25.916Z,21.46
2023-05-05T07:49:53.985Z,21.57
2023-05-05T07:52:30.065Z,21.67
2023-05-05T07:55:06.804Z,21.95
2023-05-05T07:57:33.866Z,21.79
2023-05-05T08:00:01.189Z,21.75
2023-05-05T08:02:28.553Z,22.05
2023-05-05T08:04:55.907Z,22.18
2023-05-05T08:07:22.992Z,21.93
2023-05-05T08:09:50.263Z,22.05
2023-05-05T08:12:19.475Z,21.96
2023-05-05T08:17:13.516Z,22.04
2023-05-05T08:19:40.787Z,21.95
2023-05-05T08:22:08.125Z,22.00
2023-05-05T08:24:35.410Z,22.11
2023-05-05T08:27:02.707Z,22.09
2023-05-05T08:29:31.406Z,22.20
2023-05-05T08:31:58.468Z,22.25
2023-05-05T08:34:26.004Z,22.47
2023-05-05T08:36:53.023Z,22.37
2023-05-05T08:39:20.331Z,22.34
2023-05-05T08:41:47.349Z,22.30
2023-05-05T08:44:15.007Z,22.36
2023-05-05T08:46:43.658Z,22.56
2023-05-05T08:49:16.163Z,22.76
2023-05-05T08:51:45.433Z,22.82
2023-05-05T08:54:17.817Z,22.97
2023-05-05T08:56:46.980Z,22.98
2023-05-05T08:59:15.988Z,22.96
2023-05-05T09:01:45.053Z,23.14
2023-05-05T09:04:12.591Z,22.96
2023-05-05T09:06:40.486Z,22.96
2023-05-05T09:09:09.221Z,22.93
2023-05-05T09:11:37.676Z,22.87
2023-05-05T09:14:04.980Z,23.09
2023-05-05T09:16:32.268Z,23.34
2023-05-05T09:19:04.741Z,23.14
2023-05-05T09:21:32.395Z,23.06
2023-05-05T09:24:09.077Z,23.15
2023-05-05T09:26:38.988Z,23.46
2023-05-05T09:29:06.742Z,23.36
2023-05-05T09:31:35.269Z,23.56
2023-05-05T09:34:14.115Z,23.75
2023-05-05T09:36:47.418Z,23.66
2023-05-05T09:39:16.661Z,23.73
2023-05-05T09:41:44.512Z,23.43
2023-05-05T09:44:12.631Z,23.70
2023-05-05T09:46:49.977Z,23.72
2023-05-05T09:49:25.267Z,23.61
2023-05-05T09:51:53.425Z,23.60
2023-05-05T09:54:24.951Z,23.57
2023-05-05T09:56:52.386Z,23.38
2023-05-05T09:59:20.584Z,23.50
2023-05-05T10:01:48.802Z,23.31
2023-05-05T10:04:25.336Z,23.22
2023-05-05T10:06:52.308Z,23.18
2023-05-05T10:09:21.007Z,23.20
2023-05-05T10:11:48.671Z,23.33
2023-05-05T10:14:20.592Z,23.65
2023-05-05T10:16:50.641Z,23.95
2023-05-05T10:19:19.492Z,24.16
2023-05-05T10:21:50.625Z,24.25
2023-05-05T10:24:26.031Z,24.21
2023-05-05T10:26:54.396Z,24.14
2023-05-05T10:29:28.356Z,24.44
2023-05-05T10:32:12.036Z,24.58
2023-05-05T10:34:53.487Z,24.49
2023-05-05T10:37:22.903Z,24.62
2023-05-05T10:39:52.685Z,24.68
2023-05-05T10:42:20.152Z,24.62
2023-05-05T10:44:49.153Z,24.59
2023-05-05T10:47:16.842Z,24.74
2023-05-05T10:49:49.409Z,24.71
2023-05-05T10:52:26.143Z,24.79
2023-05-05T10:55:01.482Z,24.70
2023-05-05T10:57:29.759Z,24.68
2023-05-05T10:59:57.066Z,24.83
2023-05-05T11:02:25.874Z,24.83
2023-05-05T11:05:07.264Z,24.80
2023-05-05T11:07:35.953Z,24.92
2023-05-05T11:10:05.201Z,25.03
2023-05-05T11:12:34.636Z,24.73
2023-05-05T11:15:37.597Z,24.92
2023-05-05T11:18:07.783Z,25.02
2023-05-05T11:21:03.683Z,25.20
2023-05-05T11:23:32.172Z,25.01
2023-05-05T11:26:00.048Z,24.99
2023-05-05T11:28:30.836Z,24.83
2023-05-05T11:31:18.010Z,24.74
2023-05-05T11:33:45.301Z,24.99
2023-05-05T11:36:13.720Z,25.15
2023-05-05T11:39:00.478Z,25.03
2023-05-05T11:41:41.769Z,24.94
2023-05-05T11:44:10.308Z,24.52
2023-05-05T11:46:37.872Z,24.39
2023-05-05T11:49:04.923Z,24.56
2023-05-05T11:51:32.409Z,24.69
2023-05-05T11:54:01.046Z,24.88
2023-05-05T11:56:29.267Z,24.93
2023-05-05T11:59:08.664Z,24.92
2023-05-05T12:01:39.244Z,24.83
2023-05-05T12:04:07.011Z,24.75
2023-05-05T12:06:34.415Z,24.82
2023-05-05T12:09:04.029Z,24.89
2023-05-05T12:11:31.572Z,24.72
2023-05-05T12:14:09.278Z,24.34
2023-05-05T12:16:36.821Z,24.35
2023-05-05T12:19:05.872Z,24.43
2023-05-05T12:21:33.509Z,24.51
2023-05-05T12:24:02.131Z,24.76
2023-05-05T12:26:30.928Z,24.70
2023-05-05T12:28:58.113Z,24.56
2023-05-05T12:31:35.659Z,24.25
2023-05-05T12:34:03.598Z,24.34
2023-05-05T12:36:32.879Z,24.47
2023-05-05T12:38:59.863Z,24.52
2023-05-05T12:41:29.989Z,24.55
2023-05-05T12:43:58.276Z,24.67
2023-05-05T12:46:26.598Z,24.43
2023-05-05T12:49:01.613Z,24.42
2023-05-05T12:51:28.932Z,24.46
2023-05-05T12:54:03.493Z,24.49
2023-05-05T12:56:36.762Z,24.60
2023-05-05T12:59:05.408Z,24.55
2023-05-05T13:01:33.417Z,24.67
2023-05-05T13:04:10.923Z,24.75
2023-05-05T13:06:38.837Z,24.83
2023-05-05T13:09:07.090Z,24.74
2023-05-05T13:11:39.404Z,24.67
2023-05-05T13:14:07.633Z,24.68
2023-05-05T13:16:34.797Z,24.77
2023-05-05T13:19:01.799Z,24.74
2023-05-05T13:21:29.047Z,24.73
2023-05-05T13:24:08.126Z,24.69
2023-05-05T13:26:41.168Z,24.43
2023-05-05T13:29:08.144Z,24.54
2023-05-05T13:31:35.649Z,24.67
2023-05-05T13:34:02.876Z,24.78
2023-05-05T13:36:30.126Z,24.72
2023-05-05T13:38:57.111Z,24.88
2023-05-05T13:41:24.575Z,24.78
2023-05-05T13:43:53.227Z,24.74
2023-05-05T13:46:20.554Z,24.54
2023-05-05T13:48:48.024Z,24.68
2023-05-05T13:51:16.378Z,24.68
2023-05-05T13:53:46.558Z,24.60
2023-05-05T13:56:14.452Z,24.45
2023-05-05T13:58:42.482Z,24.47
2023-05-05T14:01:11.777Z,24.45
2023-05-05T14:03:39.759Z,24.44
2023-05-05T14:06:09.106Z,24.40
2023-05-05T14:08:36.377Z,24.51
2023-05-05T14:11:03.758Z,24.34
2023-05-05T14:13:31.594Z,24.40
2023-05-05T14:15:58.760Z,24.29
2023-05-05T14:18:28.106Z,24.04
2023-05-05T14:20:55.557Z,24.29
2023-05-05T14:23:22.610Z,24.28
2023-05-05T14:25:49.868Z,24.40
2023-05-05T14:28:17.149Z,24.07
2023-05-05T14:30:44.494Z,24.38
2023-05-05T14:33:11.557Z,24.49
2023-05-05T14:35:40.386Z,24.21
2023-05-05T14:38:07.178Z,24.54
2023-05-05T14:40:34.693Z,24.37
2023-05-05T14:43:03.377Z,24.55
2023-05-05T14:45:31.828Z,24.37
2023-05-05T14:47:58.845Z,24.48
2023-05-05T14:50:26.334Z,24.55
2023-05-05T14:52:54.619Z,24.42
2023-05-05T14:55:21.958Z,24.13
2023-05-05T14:57:48.867Z,23.99
2023-05-05T15:00:16.964Z,23.98
2023-05-05T15:02:44.230Z,24.10
2023-05-05T15:05:11.796Z,24.24
2023-05-05T15:07:40.115Z,24.17
2023-05-05T15:10:09.468Z,24.29
2023-05-05T15:12:36.541Z,24.33
2023-05-05T15:15:04.417Z,24.20
2023-05-05T15:17:31.866Z,24.32
2023-05-05T15:19:59.370Z,24.27
2023-05-05T15:22:26.405Z,24.09
2023-05-05T15:24:53.568Z,24.05
2023-05-05T15:27:21.912Z,24.00
2023-05-05T15:29:49.153Z,24.01
2023-05-05T15:32:16.456Z,24.06
2023-05-05T15:34:45.464Z,24.10
2023-05-05T15:37:12.407Z,23.96
2023-05-05T15:39:39.705Z,23.86
2023-05-05T15:42:06.857Z,23.82
2023-05-05T15:44:35.670Z,23.96
2023-05-05T15:47:02.576Z,23.84
2023-05-05T15:49:29.972Z,23.81
2023-05-05T15:51:57.074Z,23.81
2023-05-05T15:54:24.278Z,23.89
2023-05-05T15:56:53.747Z,23.75
2023-05-05T15:59:21.027Z,23.71
2023-05-05T16:01:49.473Z,23.70
2023-05-05T16:04:16.864Z,23.58
2023-05-05T16:06:43.894Z,23.56
2023-05-05T16:09:11.383Z,23.56
2023-05-05T16:11:39.570Z,23.57
2023-05-05T16:14:06.844Z,23.59
2023-05-05T16:16:34.012Z,23.60
2023-05-05T16:19:02.671Z,23.47
2023-05-05T16:21:29.607Z,23.29
2023-05-05T16:23:57.048Z,23.31
2023-05-05T16:26:23.993Z,23.45
2023-05-05T16:28:54.296Z,23.31
2023-05-05T16:31:21.482Z,23.33
2023-05-05T16:33:48.871Z,23.34
2023-05-05T16:36:17.151Z,23.38
2023-05-05T16:38:44.464Z,23.31
2023-05-05T16:41:11.760Z,23.10
2023-05-05T16:43:39.201Z,23.15
2023-05-05T16:46:06.598Z,23.01
2023-05-05T16:48:34.166Z,23.09
2023-05-05T16:51:01.155Z,22.98
2023-05-05T16:53:32.877Z,23.04
2023-05-05T16:56:00.454Z,23.02
2023-05-05T16:58:30.521Z,22.88
2023-05-05T17:01:02.000Z,22.86
2023-05-05T17:03:31.488Z,22.74
2023-05-05T17:05:58.743Z,22.68
2023-05-05T17:08:30.994Z,22.61
2023-05-05T17:11:00.517Z,22.54
2023-05-05T17:13:27.878Z,22.25
2023-05-05T17:15:56.671Z,22.37
2023-05-05T17:18:25.942Z,22.24
2023-05-05T17:20:55.182Z,22.14
2023-05-05T17:23:22.413Z,22.03
2023-05-05T17:25:49.455Z,21.94
2023-05-05T17:28:18.078Z,21.86
2023-05-05T17:30:45.174Z,21.81
2023-05-05T17:33:19.167Z,21.76
2023-05-05T17:35:49.791Z,21.64
2023-05-05T17:38:17.715Z,21.56
2023-05-05T17:40:45.156Z,21.44
2023-05-05T17:43:12.634Z,21.37
2023-05-05T17:45:42.327Z,21.27
2023-05-05T17:48:09.702Z,21.02
2023-05-05T17:50:36.807Z,21.17
2023-05-05T17:53:04.943Z,20.95
2023-05-05T17:55:32.193Z,21.07
2023-05-05T17:57:59.492Z,21.00
2023-05-05T18:00:26.633Z,20.84
2023-05-05T18:02:55.399Z,20.84
2023-05-05T18:05:22.928Z,20.78
2023-05-05T18:07:50.374Z,20.72
2023-05-05T18:10:17.430Z,20.63
2023-05-05T18:12:45.149Z,20.55
2023-05-05T18:15:12.512Z,20.51
2023-05-05T18:17:40.442Z,20.43
2023-05-05T18:20:10.423Z,20.35
2023-05-05T18:22:38.033Z,20.24
2023-05-05T18:25:07.988Z,20.15
2023-05-05T18:27:36.151Z,20.07
2023-05-05T18:30:04.841Z,20.05
2023-05-05T18:32:32.432Z,19.99
2023-05-05T18:34:59.452Z,19.94
2023-05-05T18:37:28.236Z,19.91
2023-05-05T18:39:55.200Z,19.89
2023-05-05T18:42:23.600Z,19.87
2023-05-05T18:44:50.446Z,19.79
2023-05-05T18:47:17.594Z,19.79
2023-05-05T18:49:45.470Z,19.66
2023-05-05T18:52:13.501Z,19.67
2023-05-05T18:54:41.805Z,19.58
2023-05-05T18:57:09.469Z,19.59
2023-05-05T18:59:36.596Z,19.54
2023-05-05T19:02:04.025Z,19.50
2023-05-05T19:04:32.701Z,19.13
2023-05-05T19:07:00.293Z,19.40
2023-05-05T19:09:27.722Z,19.34
2023-05-05T19:11:56.405Z,19.28
2023-05-05T19:14:23.514Z,19.19
2023-05-05T19:16:51.156Z,19.20
2023-05-05T19:19:18.206Z,19.15
2023-05-05T19:21:45.525Z,19.11
2023-05-05T19:24:12.676Z,18.88
2023-05-05T19:26:40.218Z,19.02
2023-05-05T19:29:08.948Z,18.97
2023-05-05T19:31:36.833Z,18.90
2023-05-05T19:34:05.280Z,18.85
2023-05-05T19:36:32.696Z,18.81
2023-05-05T19:39:01.682Z,18.79
2023-05-05T19:41:28.990Z,18.45
2023-05-05T19:43:56.267Z,18.59
2023-05-05T19:46:27.662Z,18.57
2023-05-05T19:48:54.835Z,18.65
2023-05-05T19:51:22.252Z,18.60
2023-05-05T19:53:50.222Z,18.55
2023-05-05T19:56:17.899Z,18.45
2023-05-05T19:58:56.193Z,18.47
2023-05-05T20:01:25.371Z,18.42
2023-05-05T20:03:54.528Z,18.27
2023-05-05T20:06:22.624Z,17.81
2023-05-05T20:08:49.554Z,18.22
2023-05-05T20:11:17.495Z,18.28
2023-05-05T20:13:47.506Z,18.24
2023-05-05T20:16:15.154Z,18.10
2023-05-05T20:18:43.716Z,18.16
2023-05-05T20:21:11.134Z,18.10
2023-05-05T20:23:38.277Z,18.04
2023-05-05T20:26:05.730Z,18.01
2023-05-05T20:28:32.801Z,17.95
2023-05-05T20:31:03.381Z,17.93
2023-05-05T20:33:30.318Z,17.88
2023-05-05T20:36:01.117Z,17.52
2023-05-05T20:38:28.037Z,17.79
2023-05-05T20:40:55.851Z,17.75
2023-05-05T20:43:24.234Z,17.64
2023-05-05T20:45:51.703Z,17.64
2023-05-05T20:48:19.123Z,17.30
2023-05-05T20:50:46.039Z,17.34
2023-05-05T20:53:20.908Z,17.51
2023-05-05T20:55:48.040Z,17.45
2023-05-05T20:58:15.402Z,17.36
2023-05-05T21:00:42.438Z,17.37
2023-05-05T21:03:09.904Z,17.33
2023-05-05T21:05:37.305Z,17.29
2023-05-05T21:08:05.728Z,17.22
2023-05-05T21:10:34.450Z,17.21
2023-05-05T21:13:02.558Z,17.17
2023-05-05T21:15:29.885Z,17.08
2023-05-05T21:17:57.423Z,17.12
2023-05-05T21:20:24.731Z,17.09
2023-05-05T21:22:51.982Z,16.87
2023-05-05T21:25:20.955Z,16.92
2023-05-05T21:27:49.926Z,16.97
2023-05-05T21:30:17.625Z,16.94
2023-05-05T21:32:45.676Z,16.91
2023-05-05T21:35:12.790Z,16.70
2023-05-05T21:37:40.700Z,16.86
2023-05-05T21:40:13.231Z,16.83
2023-05-05T21:42:41.249Z,16.76
2023-05-05T21:45:10.943Z,16.73
2023-05-05T21:47:38.539Z,16.69
2023-05-05T21:50:06.976Z,16.68
2023-05-05T21:52:34.276Z,16.64
2023-05-05T21:55:01.562Z,16.52
2023-05-05T21:57:28.862Z,16.58
2023-05-05T21:59:55.926Z,16.39
2023-05-05T22:02:24.645Z,16.54
2023-05-05T22:04:51.939Z,16.51
2023-05-05T22:07:19.167Z,16.45
2023-05-05T22:09:46.193Z,16.46
2023-05-05T22:12:13.727Z,16.45
2023-05-05T22:14:40.895Z,16.44
2023-05-05T22:17:08.207Z,16.41
2023-05-05T22:19:36.514Z,16.41
2023-05-05T22:22:03.966Z,16.19
2023-05-05T22:24:31.084Z,16.37
2023-05-05T22:26:58.601Z,16.31
2023-05-05T22:29:25.670Z,16.26
2023-05-05T22:31:53.117Z,16.22
2023-05-05T22:34:21.742Z,16.20
2023-05-05T22:36:50.331Z,16.16
2023-05-05T22:39:18.529Z,16.07
2023-05-05T22:41:46.238Z,16.00
2023-05-05T22:44:18.521Z,15.80
2023-05-05T22:46:45.888Z,15.83
2023-05-05T22:49:14.017Z,15.73
2023-05-05T22:51:41.377Z,15.89
2023-05-05T22:54:09.811Z,15.76
2023-05-05T22:56:39.767Z,15.82
2023-05-05T22:59:06.838Z,15.73
2023-05-05T23:01:34.728Z,15.71
2023-05-05T23:04:01.718Z,15.72
2023-05-05T23:06:29.662Z,15.72
2023-05-05T23:08:56.599Z,15.65
2023-05-05T23:11:26.126Z,15.72
2023-05-05T23:13:53.532Z,15.73
2023-05-05T23:16:20.846Z,15.73
2023-05-05T23:18:47.851Z,15.69
2023-05-05T23:21:14.950Z,15.63
2023-05-05T23:23:42.103Z,15.31
2023-05-05T23:26:13.574Z,15.46
2023-05-05T23:28:42.014Z,15.35
2023-05-05T23:31:09.253Z,15.17
2023-05-05T23:33:36.345Z,15.26
2023-05-05T23:36:04.505Z,15.25
2023-05-05T23:38:31.516Z,15.20
2023-05-05T23:40:58.912Z,15.08
2023-05-05T23:43:26.016Z,15.08
2023-05-05T23:45:54.578Z,15.02
2023-05-05T23:48:21.880Z,14.98
2023-05-05T23:50:49.482Z,14.96
2023-05-05T23:53:16.608Z,14.89
2023-05-05T23:55:43.906Z,14.79
2023-05-05T23:58:10.960Z,14.80
